EPLL/LCJ METAR and TAF weather

Enter ICAO airport designator
Station Type Date Time Source
EPLL METAR 2021/06/24 06:30 UTC NOAA

EPLL 240630Z 13004KT 070V200 9999 -SHRA VCTS SCT050CB 17/17 Q1018 RETS


Station Type Date Time Source
EPLL Decoded METAR 2021/06/24 06:30 UTC NOAA

Station name not available
Jun 24, 2021 - 02:30 AM EDT / 2021.06.24 0630 UTC
Wind: from the SE (130 degrees) at 5 MPH (4 KT) (direction variable):0
Visibility: greater than 7 mile(s):0
Sky conditions: partly cloudy
Weather: light rain showers; thunder in the vicinity; Cumulonimbus clouds observed
Temperature: 62 F (17 C)
Dew Point: 62 F (17 C)
Relative Humidity: 100%
Pressure (altimeter): 30.06 in. Hg (1018 hPa)
ob: EPLL 240630Z 13004KT 070V200 9999 -SHRA VCTS SCT050CB 17/17 Q1018 RETS
cycle: 6

Station Type Date Time Source
EPLL TAF 2021/06/24 06:00 UTC NOAA

TAF EPLL 240530Z 2406/2506 VRB03KT 9999 BKN040
TEMPO 2406/2412 3000 TSRA BKN030CB PROB40
TEMPO 2406/2412 1200 +TSRA BKN007 BKN014CB PROB40
TEMPO 2412/2415 -TSRA BKN030CB
TEMPO 2415/2503 VRB15G35KT 2000 TSRA BKN007 BKN014CB PROB40
TEMPO 2416/2424 0800 +TSRA

Example: see airport list